createdAt,value
2023-05-19T00:01:15.237Z,3.87
2023-05-19T00:03:52.631Z,3.17
2023-05-19T00:06:24.094Z,4.27
2023-05-19T00:08:58.041Z,2.17
2023-05-19T00:11:27.991Z,3.63
2023-05-19T00:13:56.614Z,1.93
2023-05-19T00:16:26.157Z,3.23
2023-05-19T00:18:54.423Z,3.50
2023-05-19T00:21:22.475Z,3.47
2023-05-19T00:23:50.558Z,3.43
2023-05-19T00:26:18.579Z,4.13
2023-05-19T00:28:47.911Z,2.10
2023-05-19T00:31:15.940Z,3.43
2023-05-19T00:33:43.994Z,4.33
2023-05-19T00:36:11.930Z,3.20
2023-05-19T00:38:40.083Z,3.50
2023-05-19T00:41:08.675Z,2.93
2023-05-19T00:43:36.595Z,3.20
2023-05-19T00:46:07.407Z,2.03
2023-05-19T00:48:35.417Z,2.70
2023-05-19T00:51:06.462Z,2.93
2023-05-19T00:53:35.523Z,2.97
2023-05-19T00:56:04.282Z,5.10
2023-05-19T00:58:33.084Z,4.17
2023-05-19T01:01:04.251Z,4.23
2023-05-19T01:03:36.129Z,3.10
2023-05-19T01:06:06.046Z,2.73
2023-05-19T01:08:34.561Z,2.40
2023-05-19T01:11:02.641Z,4.40
2023-05-19T01:13:31.281Z,4.63
2023-05-19T01:16:06.828Z,3.93
2023-05-19T01:18:49.007Z,3.97
2023-05-19T01:21:36.534Z,2.30
2023-05-19T01:24:18.093Z,3.20
2023-05-19T01:27:11.087Z,2.73
2023-05-19T01:30:02.136Z,2.27
2023-05-19T01:32:32.064Z,5.77
2023-05-19T01:35:00.202Z,2.70
2023-05-19T01:37:28.569Z,2.50
2023-05-19T01:39:56.915Z,4.47
2023-05-19T01:42:25.056Z,4.03
2023-05-19T01:44:53.551Z,2.37
2023-05-19T01:47:21.504Z,3.23
2023-05-19T01:49:50.847Z,2.80
2023-05-19T01:52:18.865Z,1.97
2023-05-19T01:54:46.789Z,6.30
2023-05-19T01:57:29.243Z,6.17
2023-05-19T02:00:05.707Z,3.70
2023-05-19T02:02:42.383Z,3.03
2023-05-19T02:05:16.854Z,2.80
2023-05-19T02:07:48.531Z,3.70
2023-05-19T02:10:20.598Z,2.33
2023-05-19T02:12:51.259Z,3.37
2023-05-19T02:15:22.825Z,3.83
2023-05-19T02:17:54.431Z,3.13
2023-05-19T02:20:23.806Z,2.80
2023-05-19T02:22:51.793Z,1.70
2023-05-19T02:25:19.820Z,4.43
2023-05-19T02:27:49.164Z,6.20
2023-05-19T02:30:17.126Z,3.93
2023-05-19T02:32:46.913Z,1.70
2023-05-19T02:35:14.978Z,3.60
2023-05-19T02:37:44.416Z,6.37
2023-05-19T02:40:12.712Z,3.10
2023-05-19T02:42:40.720Z,4.13
2023-05-19T02:45:09.660Z,2.43
2023-05-19T02:47:38.412Z,2.67
2023-05-19T02:50:07.607Z,3.73
2023-05-19T02:52:35.527Z,2.93
2023-05-19T02:55:05.020Z,2.70
2023-05-19T02:57:34.268Z,3.20
2023-05-19T03:00:02.436Z,2.83
2023-05-19T03:02:30.819Z,3.83
2023-05-19T03:05:01.630Z,3.03
2023-05-19T03:07:30.780Z,2.27
2023-05-19T03:09:58.741Z,3.97
2023-05-19T03:12:28.053Z,3.80
2023-05-19T03:14:55.967Z,2.83
2023-05-19T03:17:23.983Z,2.97
2023-05-19T03:19:52.255Z,4.97
2023-05-19T03:22:20.989Z,5.30
2023-05-19T03:24:51.135Z,2.13
2023-05-19T03:27:19.110Z,5.63
2023-05-19T03:29:48.444Z,1.97
2023-05-19T03:32:16.465Z,5.00
2023-05-19T03:34:44.382Z,3.53
2023-05-19T03:37:13.007Z,5.00
2023-05-19T03:39:40.927Z,2.13
2023-05-19T03:42:09.073Z,3.80
2023-05-19T03:44:37.051Z,3.83
2023-05-19T03:47:07.078Z,4.53
2023-05-19T03:49:35.017Z,4.17
2023-05-19T03:52:03.455Z,4.07
2023-05-19T03:54:31.776Z,3.27
2023-05-19T03:56:59.756Z,2.27
2023-05-19T03:59:27.988Z,2.87
2023-05-19T04:01:57.914Z,7.03
2023-05-19T04:04:28.453Z,3.67
2023-05-19T04:06:56.528Z,3.53
2023-05-19T04:09:24.679Z,6.00
2023-05-19T04:11:52.617Z,3.27
2023-05-19T04:14:21.248Z,2.13
2023-05-19T04:16:49.273Z,3.70
2023-05-19T04:19:17.243Z,2.47
2023-05-19T04:21:47.056Z,4.97
2023-05-19T04:24:14.962Z,4.03
2023-05-19T04:26:46.100Z,2.43
2023-05-19T04:29:18.184Z,3.80
2023-05-19T04:31:46.753Z,2.87
2023-05-19T04:34:14.684Z,3.80
2023-05-19T04:36:42.689Z,4.30
2023-05-19T04:39:12.437Z,2.47
2023-05-19T04:41:40.646Z,2.40
2023-05-19T04:44:09.106Z,3.83
2023-05-19T04:46:37.113Z,3.13
2023-05-19T04:49:05.052Z,2.27
2023-05-19T04:51:33.032Z,4.33
2023-05-19T04:54:01.579Z,3.33
2023-05-19T04:56:31.009Z,5.47
2023-05-19T04:58:58.960Z,5.90
2023-05-19T05:01:27.012Z,3.30
2023-05-19T05:03:56.228Z,4.70
2023-05-19T05:06:24.202Z,3.27
2023-05-19T05:08:52.671Z,2.60
2023-05-19T05:11:21.446Z,4.93
2023-05-19T05:13:51.469Z,4.73
2023-05-19T05:16:19.950Z,3.20
2023-05-19T05:18:48.490Z,5.20
2023-05-19T05:21:16.995Z,3.13
2023-05-19T05:23:45.487Z,4.20
2023-05-19T05:26:19.339Z,4.60
2023-05-19T05:28:47.268Z,4.13
2023-05-19T05:31:17.070Z,6.80
2023-05-19T05:33:45.156Z,5.47
2023-05-19T05:36:13.766Z,5.87
2023-05-19T05:38:41.730Z,2.63
2023-05-19T05:41:09.734Z,5.73
2023-05-19T05:43:37.760Z,3.60
2023-05-19T05:46:05.834Z,2.70
2023-05-19T05:48:36.002Z,5.13
2023-05-19T05:51:04.573Z,5.23
2023-05-19T05:53:33.202Z,5.67
2023-05-19T05:56:01.760Z,4.97
2023-05-19T05:58:29.865Z,3.77
2023-05-19T06:00:58.788Z,6.70
2023-05-19T06:03:27.006Z,5.97
2023-05-19T06:05:56.628Z,3.33
2023-05-19T06:08:24.678Z,4.17
2023-05-19T06:10:52.652Z,5.23
2023-05-19T06:13:24.091Z,6.73
2023-05-19T06:15:52.768Z,3.23
2023-05-19T06:18:20.769Z,4.20
2023-05-19T06:20:48.716Z,6.60
2023-05-19T06:23:18.027Z,6.30
2023-05-19T06:25:46.170Z,4.13
2023-05-19T06:28:14.115Z,5.57
2023-05-19T06:30:42.100Z,3.83
2023-05-19T06:33:10.052Z,6.10
2023-05-19T06:35:38.025Z,5.20
2023-05-19T06:38:05.997Z,2.90
2023-05-19T06:40:36.085Z,6.83
2023-05-19T06:43:06.997Z,6.07
2023-05-19T06:45:34.979Z,5.67
2023-05-19T06:48:03.069Z,7.53
2023-05-19T06:50:31.333Z,5.63
2023-05-19T06:52:59.589Z,4.60
2023-05-19T06:55:27.581Z,5.40
2023-05-19T06:57:57.465Z,10.67
2023-05-19T07:00:25.450Z,5.30
2023-05-19T07:02:53.570Z,5.70
2023-05-19T07:05:21.807Z,3.80
2023-05-19T07:07:51.881Z,5.83
2023-05-19T07:10:21.501Z,5.93
2023-05-19T07:12:49.541Z,5.40
2023-05-19T07:15:18.913Z,3.03
2023-05-19T07:17:46.904Z,3.73
2023-05-19T07:20:15.036Z,4.43
2023-05-19T07:22:42.999Z,4.53
2023-05-19T07:25:11.495Z,9.37
2023-05-19T07:27:39.452Z,3.60
2023-05-19T07:30:08.826Z,6.70
2023-05-19T07:32:38.257Z,6.90
2023-05-19T07:35:07.568Z,5.93
2023-05-19T07:37:36.078Z,4.00
2023-05-19T07:40:04.487Z,4.87
2023-05-19T07:42:32.404Z,3.67
2023-05-19T07:45:00.324Z,4.27
2023-05-19T07:47:28.380Z,5.60
2023-05-19T07:49:57.695Z,6.00
2023-05-19T07:52:25.671Z,4.57
2023-05-19T07:54:54.076Z,5.13
2023-05-19T07:57:22.160Z,3.00
2023-05-19T07:59:50.111Z,4.13
2023-05-19T08:02:18.213Z,3.30
2023-05-19T08:04:46.281Z,4.80
2023-05-19T08:07:15.642Z,6.13
2023-05-19T08:09:43.641Z,3.57
2023-05-19T08:12:11.624Z,4.07
2023-05-19T08:14:39.550Z,2.47
2023-05-19T08:17:07.494Z,5.33
2023-05-19T08:19:35.569Z,3.17
2023-05-19T08:22:06.058Z,6.03
2023-05-19T08:24:35.515Z,4.23
2023-05-19T08:27:04.881Z,6.17
2023-05-19T08:29:32.935Z,4.40
2023-05-19T08:32:02.529Z,2.97
2023-05-19T08:34:30.515Z,3.50
2023-05-19T08:36:59.778Z,6.00
2023-05-19T08:39:27.759Z,1.97
2023-05-19T08:41:57.316Z,3.03
2023-05-19T08:44:25.309Z,4.97
2023-05-19T08:46:55.773Z,3.40
2023-05-19T08:49:28.630Z,4.87
2023-05-19T08:52:11.189Z,11.30
2023-05-19T08:54:43.834Z,4.67
2023-05-19T08:57:13.860Z,9.43
2023-05-19T08:59:42.472Z,5.47
2023-05-19T09:02:12.963Z,3.40
2023-05-19T09:04:41.633Z,4.13
2023-05-19T09:07:10.934Z,6.63
2023-05-19T09:09:40.860Z,7.60
2023-05-19T09:12:08.783Z,4.43
2023-05-19T09:14:38.230Z,6.13
2023-05-19T09:17:06.734Z,2.93
2023-05-19T09:19:34.943Z,5.07
2023-05-19T09:22:04.775Z,4.83
2023-05-19T09:24:33.076Z,5.53
2023-05-19T09:27:01.038Z,8.43
2023-05-19T09:29:28.995Z,7.13
2023-05-19T09:32:01.652Z,3.77
2023-05-19T09:34:29.713Z,4.53
2023-05-19T09:36:58.048Z,5.70
2023-05-19T09:39:26.318Z,4.17
2023-05-19T09:41:54.704Z,2.70
2023-05-19T09:44:29.271Z,3.37
2023-05-19T09:46:59.830Z,12.70
2023-05-19T09:49:29.770Z,7.37
2023-05-19T09:51:58.181Z,4.43
2023-05-19T09:54:27.626Z,3.80
2023-05-19T09:57:00.081Z,9.30
2023-05-19T09:59:31.522Z,20.67
2023-05-19T10:02:03.170Z,3.20
2023-05-19T10:04:32.064Z,9.30
2023-05-19T10:07:00.511Z,5.60
2023-05-19T10:09:29.977Z,16.47
2023-05-19T10:11:59.143Z,6.30
2023-05-19T10:14:27.651Z,12.87
2023-05-19T10:16:56.727Z,7.47
2023-05-19T10:19:26.943Z,8.80
2023-05-19T10:21:55.154Z,15.43
2023-05-19T10:24:23.319Z,43.90
2023-05-19T10:26:54.892Z,28.90
2023-05-19T10:29:26.816Z,44.33
2023-05-19T10:31:55.702Z,15.90
2023-05-19T10:34:42.027Z,26.20
2023-05-19T10:37:17.975Z,5.10
2023-05-19T10:39:46.409Z,9.70
2023-05-19T10:42:18.315Z,12.13
2023-05-19T10:44:53.450Z,10.27
2023-05-19T10:47:25.047Z,6.33
2023-05-19T10:49:55.788Z,7.80
2023-05-19T10:52:26.158Z,4.03
2023-05-19T10:54:55.131Z,3.70
2023-05-19T10:57:27.678Z,3.63
2023-05-19T10:59:57.034Z,4.47
2023-05-19T11:02:46.121Z,2.27
2023-05-19T11:05:18.159Z,4.40
2023-05-19T11:07:56.211Z,2.57
2023-05-19T11:10:24.691Z,2.70
2023-05-19T11:12:53.250Z,4.50
2023-05-19T11:15:27.451Z,5.70
2023-05-19T11:17:56.376Z,39.00
2023-05-19T11:20:27.224Z,45.67
2023-05-19T11:23:08.378Z,10.70
2023-05-19T11:25:43.932Z,16.20
2023-05-19T11:28:13.333Z,12.00
2023-05-19T11:30:44.631Z,7.18
2023-05-19T11:33:13.479Z,11.85
2023-05-19T11:35:43.459Z,9.68
2023-05-19T11:38:12.570Z,11.23
2023-05-19T11:40:41.160Z,8.43
2023-05-19T11:43:09.143Z,5.25
2023-05-19T11:45:37.572Z,5.53
2023-05-19T11:48:07.041Z,4.82
2023-05-19T11:50:36.984Z,13.13
2023-05-19T11:53:06.471Z,2.75
2023-05-19T11:55:34.503Z,2.45
2023-05-19T11:58:05.456Z,4.13
2023-05-19T12:00:39.450Z,3.50
2023-05-19T12:03:08.333Z,2.47
2023-05-19T12:05:42.070Z,3.00
2023-05-19T12:08:12.850Z,2.78
2023-05-19T12:10:41.525Z,3.55
2023-05-19T12:13:10.555Z,2.58
2023-05-19T12:15:39.419Z,4.38
2023-05-19T12:18:07.820Z,3.03
2023-05-19T12:20:36.606Z,3.15
2023-05-19T12:23:04.834Z,1.77
2023-05-19T12:25:34.494Z,2.78
2023-05-19T12:28:04.571Z,3.67
2023-05-19T12:30:34.420Z,4.38
2023-05-19T12:33:03.735Z,2.58
2023-05-19T12:35:33.539Z,2.58
2023-05-19T12:38:04.565Z,2.80
2023-05-19T12:40:35.135Z,2.95
2023-05-19T12:43:03.606Z,1.88
2023-05-19T12:45:35.602Z,2.92
2023-05-19T12:48:05.388Z,2.35
2023-05-19T12:50:34.189Z,4.05
2023-05-19T12:53:02.582Z,3.70
2023-05-19T12:55:31.141Z,3.47
2023-05-19T12:58:00.473Z,4.03
2023-05-19T13:00:31.164Z,3.60
2023-05-19T13:03:04.985Z,3.55
2023-05-19T13:05:34.794Z,2.53
2023-05-19T13:08:05.573Z,4.68
2023-05-19T13:10:34.987Z,6.50
2023-05-19T13:13:07.465Z,1.85
2023-05-19T13:15:37.980Z,3.38
2023-05-19T13:18:09.026Z,4.63
2023-05-19T13:20:37.383Z,6.45
2023-05-19T13:23:05.991Z,2.53
2023-05-19T13:25:34.449Z,3.55
2023-05-19T13:28:05.256Z,4.03
2023-05-19T13:30:39.524Z,3.67
2023-05-19T13:33:08.091Z,5.03
2023-05-19T13:35:38.105Z,2.22
2023-05-19T13:38:06.824Z,3.35
2023-05-19T13:40:35.665Z,4.40
2023-05-19T13:43:04.261Z,2.47
2023-05-19T13:45:32.216Z,2.53
2023-05-19T13:48:01.686Z,1.52
2023-05-19T13:50:29.733Z,3.20
2023-05-19T13:52:57.662Z,5.18
2023-05-19T13:55:27.494Z,4.47
2023-05-19T13:57:55.970Z,2.35
2023-05-19T14:00:24.060Z,3.33
2023-05-19T14:02:52.779Z,1.67
2023-05-19T14:05:22.341Z,3.20
2023-05-19T14:07:50.320Z,4.30
2023-05-19T14:10:18.333Z,4.60
2023-05-19T14:13:14.020Z,2.15
2023-05-19T14:15:37.955Z,3.42
2023-05-19T14:18:07.028Z,5.22
2023-05-19T14:20:36.708Z,4.78
2023-05-19T14:23:04.830Z,4.55
2023-05-19T14:25:32.863Z,3.78
2023-05-19T14:28:00.997Z,3.10
2023-05-19T14:30:29.070Z,2.47
2023-05-19T14:32:57.420Z,2.55
2023-05-19T14:35:26.100Z,4.88
2023-05-19T14:37:55.549Z,2.75
2023-05-19T14:40:23.519Z,3.47
2023-05-19T14:42:51.480Z,2.38
2023-05-19T14:45:19.554Z,3.08
2023-05-19T14:47:48.037Z,3.85
2023-05-19T14:50:16.161Z,1.88
2023-05-19T14:52:44.097Z,2.88
2023-05-19T14:55:13.434Z,2.17
2023-05-19T14:57:41.393Z,2.75
2023-05-19T15:00:10.391Z,3.55
2023-05-19T15:02:38.426Z,1.88
2023-05-19T15:05:06.966Z,2.83
2023-05-19T15:07:34.921Z,2.55
2023-05-19T15:10:03.286Z,2.00
2023-05-19T15:12:34.859Z,3.47
2023-05-19T15:15:02.910Z,2.35
2023-05-19T15:17:30.990Z,3.35
2023-05-19T15:19:58.933Z,2.30
2023-05-19T15:22:27.715Z,2.88
2023-05-19T15:24:55.729Z,4.45
2023-05-19T15:27:23.959Z,3.38
2023-05-19T15:29:53.357Z,2.33
2023-05-19T15:32:21.393Z,3.58
2023-05-19T15:34:49.405Z,2.15
2023-05-19T15:37:17.452Z,2.80
2023-05-19T15:39:45.373Z,3.05
2023-05-19T15:42:13.336Z,3.05
2023-05-19T15:44:41.326Z,2.10
2023-05-19T15:47:10.789Z,3.22
2023-05-19T15:49:38.824Z,1.48
2023-05-19T15:52:07.370Z,2.35
2023-05-19T15:54:35.328Z,2.83
2023-05-19T15:57:03.244Z,2.88
2023-05-19T15:59:31.175Z,3.45
2023-05-19T16:01:59.177Z,3.88
2023-05-19T16:04:28.493Z,2.38
2023-05-19T16:06:56.582Z,4.22
2023-05-19T16:09:24.570Z,1.88
2023-05-19T16:11:52.529Z,4.97
2023-05-19T16:14:20.488Z,2.40
2023-05-19T16:16:48.499Z,3.85
2023-05-19T16:19:16.587Z,1.73
2023-05-19T16:21:45.965Z,2.70
2023-05-19T16:24:13.961Z,2.92
2023-05-19T16:26:41.967Z,2.70
2023-05-19T16:29:09.873Z,1.42
2023-05-19T16:31:37.879Z,3.67
2023-05-19T16:34:05.888Z,1.92
2023-05-19T16:36:33.950Z,3.67
2023-05-19T16:39:03.338Z,3.40
2023-05-19T16:41:31.261Z,4.15
2023-05-19T16:43:59.235Z,2.40
2023-05-19T16:46:29.093Z,1.95
2023-05-19T16:48:57.918Z,1.75
2023-05-19T16:51:25.856Z,4.25
2023-05-19T16:53:53.805Z,2.63
2023-05-19T16:56:23.197Z,3.15
2023-05-19T16:58:51.340Z,2.05
2023-05-19T17:01:19.304Z,2.33
2023-05-19T17:03:47.317Z,3.10
2023-05-19T17:06:15.359Z,1.80
2023-05-19T17:08:43.348Z,2.05
2023-05-19T17:11:11.486Z,1.73
2023-05-19T17:13:42.317Z,1.83
2023-05-19T17:16:10.503Z,1.73
2023-05-19T17:18:38.526Z,1.95
2023-05-19T17:21:06.523Z,3.90
2023-05-19T17:23:34.603Z,1.85
2023-05-19T17:26:03.272Z,1.80
2023-05-19T17:28:31.437Z,2.78
2023-05-19T17:31:01.484Z,3.60
2023-05-19T17:33:29.508Z,1.95
2023-05-19T17:35:57.630Z,3.08
2023-05-19T17:38:25.658Z,2.45
2023-05-19T17:40:53.798Z,2.97
2023-05-19T17:43:21.721Z,2.67
2023-05-19T17:45:49.693Z,1.85
2023-05-19T17:48:19.028Z,1.95
2023-05-19T17:50:56.255Z,2.33
2023-05-19T17:53:24.725Z,2.17
2023-05-19T17:55:54.528Z,2.90
2023-05-19T17:58:23.008Z,2.65
2023-05-19T18:00:51.620Z,3.83
2023-05-19T18:03:21.684Z,1.73
2023-05-19T18:05:50.460Z,2.53
2023-05-19T18:08:18.785Z,4.72
2023-05-19T18:10:48.601Z,1.40
2023-05-19T18:13:16.582Z,3.05
2023-05-19T18:15:44.568Z,2.92
2023-05-19T18:18:12.776Z,3.83
2023-05-19T18:20:44.778Z,4.15
2023-05-19T18:23:12.833Z,2.70
2023-05-19T18:25:40.799Z,3.03
2023-05-19T18:28:09.161Z,3.70
2023-05-19T18:30:37.093Z,2.17
2023-05-19T18:33:05.898Z,2.58
2023-05-19T18:35:33.913Z,3.40
2023-05-19T18:38:03.222Z,1.97
2023-05-19T18:40:31.395Z,6.50
2023-05-19T18:42:59.587Z,2.50
2023-05-19T18:45:27.535Z,2.90
2023-05-19T18:47:55.496Z,2.37
2023-05-19T18:50:23.526Z,5.83
2023-05-19T18:52:51.481Z,2.73
2023-05-19T18:55:20.785Z,2.43
2023-05-19T18:57:48.762Z,2.10
2023-05-19T19:00:18.128Z,4.73
2023-05-19T19:02:46.095Z,3.20
2023-05-19T19:05:14.095Z,1.87
2023-05-19T19:07:43.191Z,1.30
2023-05-19T19:10:11.262Z,2.30
2023-05-19T19:12:43.013Z,3.37
2023-05-19T19:15:12.114Z,3.50
2023-05-19T19:17:41.210Z,2.27
2023-05-19T19:20:10.222Z,3.33
2023-05-19T19:22:38.305Z,1.20
2023-05-19T19:25:06.994Z,1.90
2023-05-19T19:27:35.739Z,2.30
2023-05-19T19:30:05.880Z,2.30
2023-05-19T19:32:33.950Z,2.33
2023-05-19T19:35:01.973Z,1.00
2023-05-19T19:37:29.968Z,2.33
2023-05-19T19:39:57.940Z,2.30
2023-05-19T19:42:25.904Z,1.57
2023-05-19T19:44:56.133Z,1.97
2023-05-19T19:47:25.554Z,3.20
2023-05-19T19:49:53.510Z,2.27
2023-05-19T19:52:21.489Z,2.30
2023-05-19T19:54:49.428Z,1.87
2023-05-19T19:57:17.766Z,1.80
2023-05-19T19:59:45.813Z,1.90
2023-05-19T20:02:13.781Z,1.60
2023-05-19T20:04:57.459Z,1.80
2023-05-19T20:07:25.499Z,2.03
2023-05-19T20:09:53.467Z,1.30
2023-05-19T20:12:21.404Z,1.50
2023-05-19T20:14:51.420Z,1.60
2023-05-19T20:17:19.362Z,2.50
2023-05-19T20:19:48.791Z,1.53
2023-05-19T20:22:16.753Z,1.17
2023-05-19T20:24:44.801Z,1.30
2023-05-19T20:27:12.747Z,2.07
2023-05-19T20:29:40.691Z,1.20
2023-05-19T20:32:08.700Z,1.73
2023-05-19T20:34:36.809Z,1.43
2023-05-19T20:37:06.475Z,1.77
2023-05-19T20:39:34.533Z,1.83
2023-05-19T20:42:02.499Z,1.00
2023-05-19T20:44:30.415Z,3.40
2023-05-19T20:46:58.368Z,1.67
2023-05-19T20:49:26.319Z,2.40
2023-05-19T20:51:54.690Z,1.57
2023-05-19T20:54:24.031Z,3.93
2023-05-19T20:56:52.537Z,4.60
2023-05-19T20:59:20.505Z,3.50
2023-05-19T21:01:48.487Z,0.83
2023-05-19T21:04:16.517Z,2.00
2023-05-19T21:06:44.550Z,0.80
2023-05-19T21:09:12.493Z,1.77
2023-05-19T21:11:42.333Z,3.83
2023-05-19T21:14:10.255Z,2.30
2023-05-19T21:16:38.970Z,2.03
2023-05-19T21:19:07.487Z,1.53
2023-05-19T21:21:36.266Z,3.13
2023-05-19T21:24:04.372Z,1.67
2023-05-19T21:26:32.284Z,1.43
2023-05-19T21:29:01.597Z,1.90
2023-05-19T21:31:29.615Z,3.40
2023-05-19T21:33:57.548Z,1.57
2023-05-19T21:36:25.756Z,1.77
2023-05-19T21:38:53.730Z,1.30
2023-05-19T21:41:22.382Z,3.33
2023-05-19T21:43:50.378Z,1.53
2023-05-19T21:46:19.765Z,3.80
2023-05-19T21:48:47.697Z,1.47
2023-05-19T21:51:15.688Z,1.20
2023-05-19T21:53:43.617Z,2.43
2023-05-19T21:56:11.563Z,1.73
2023-05-19T21:58:39.730Z,2.40
2023-05-19T22:01:08.050Z,0.90
2023-05-19T22:03:37.429Z,1.60
2023-05-19T22:06:06.567Z,2.20
2023-05-19T22:08:34.520Z,1.07
2023-05-19T22:11:02.456Z,1.77
2023-05-19T22:13:30.686Z,1.47
2023-05-19T22:15:58.671Z,3.40
2023-05-19T22:18:26.602Z,1.90
2023-05-19T22:20:55.964Z,2.40
2023-05-19T22:23:23.888Z,0.80
2023-05-19T22:25:51.833Z,3.30
2023-05-19T22:28:19.856Z,1.40
2023-05-19T22:30:47.816Z,2.80
2023-05-19T22:33:16.129Z,1.43
2023-05-19T22:35:44.196Z,1.83
2023-05-19T22:38:13.540Z,1.73
2023-05-19T22:40:41.484Z,0.60
2023-05-19T22:43:09.411Z,2.10
2023-05-19T22:45:37.526Z,2.17
2023-05-19T22:48:06.329Z,1.30
2023-05-19T22:50:34.366Z,1.70
2023-05-19T22:53:02.374Z,1.97
2023-05-19T22:55:32.286Z,0.97
2023-05-19T22:58:00.420Z,3.33
2023-05-19T23:00:28.335Z,2.43
2023-05-19T23:02:58.256Z,4.17
2023-05-19T23:05:26.376Z,1.43
2023-05-19T23:07:54.394Z,1.33
2023-05-19T23:10:22.315Z,1.67
2023-05-19T23:12:51.654Z,1.50
2023-05-19T23:15:19.657Z,1.73
2023-05-19T23:17:47.608Z,1.13
2023-05-19T23:20:15.677Z,2.07
2023-05-19T23:22:43.622Z,0.97
2023-05-19T23:25:11.584Z,1.33
2023-05-19T23:27:39.556Z,1.90
2023-05-19T23:30:10.185Z,4.13
2023-05-19T23:32:38.207Z,1.57
2023-05-19T23:35:13.882Z,2.00
2023-05-19T23:37:41.847Z,2.60
2023-05-19T23:40:10.415Z,1.67
2023-05-19T23:42:38.579Z,1.83
2023-05-19T23:45:09.288Z,2.50
2023-05-19T23:47:37.376Z,1.77
2023-05-19T23:50:05.839Z,1.43
2023-05-19T23:52:33.796Z,1.90
2023-05-19T23:55:03.290Z,1.17
2023-05-19T23:57:31.243Z,1.40
2023-05-19T23:59:59.828Z,1.97
